Terminal Aerodrome Forecast
Issued by NWS

Home | Current Version | Previous Version | Text Only | Print | Product List | Glossary On
Versions: 1 2 3 4 5 6 7 8 9 10 11 12 13 14 15 16 17
000
FTUS42 KFFC 250520
TAFPDK
TAF
KPDK 250520Z 2506/2606 00000KT P6SM SCT250
      TEMPO 2507/2511 3SM BR SCT003
     FM251300 VRB03KT P6SM SCT020
     FM251500 VRB03KT P6SM SCT030
     FM251700 02004KT P6SM SCT045
     FM260100 00000KT P6SM SCT250=

USA.gov is the U.S. government's official web portal to all federal, state and local government web resources and services.